Aktualne dane pomiarowe

Uwaga, wersja testowa! Automatyczne pobieranie danych za pomocą narzędzi lub skryptów to umożliwiających jest zabronione.

Dane meteo z obszaru Polski uzyskane na podstawie depesz SYNOP pobieranych co godzinę z NWS. Najedź myszką na symbol przedstawiony w tabeli, aby uzyskać informacje co do jego znaczenia. Prosimy pamiętać, że to testowa wersja strony, która jeszcze nie jest ukończona. Stworzono również jest krótki FAQ dotyczący korzystania z tej podstrony Anomalie temperatury w chwili obecnej odniesione są do okresu referencyjnego 1951-2016. Okres ten będzie później zmieniony na 1981-2010. Kliknij ikonę aby pobrać plik CSV. Kliknij ikonę aby wygenerować mapę synoptyczną dla danego terminu.

Wybierz Datę:    

        

Krosno (12670)

Dane terminowe dla wybranej stacji. Kliknij datę, aby otrzymać dane z tego terminu dla wszystkich stacji.

TemperaturaZachmurzenieWiatrCiśnienieOpadyPogoda
 Data t td wb tx tn tg rh  Nt Nl Cl Cm Ch ws wd g1 g2 wx mslp ppp ch 24h 12h t ww ww w1 w2  
2019-07-07 23:00:00 13.2 8.9 10.5--- 7535.0wxwxwxwx2wx--21011.0 971.8 1.9---------
2019-07-07 22:00:00 13.9 10.5 11.7--- 8030.0wxwxwxwxwx4wx--41010.2 971.2 1.7---------
2019-07-07 21:00:00 14.5 10.9 12.1--- 7935.0wxwxwxwx2wx--21009.3 970.4 0.9---------
2019-07-07 20:00:00 15.5 11.4 12.8--- 7740.0wxwxwxwxwx3wx--31008.7 969.9 0.7---------
2019-07-07 19:00:00 16.4 11.2 13.1--- 7145.0wxwxwxwxwx3wx---1008.1 969.5 1.1---------
2019-07-07 18:00:00 17.2 11.3 13.5 25.4 17.2- 6830.0wxwxwxwxwx3wx-1231008.0 969.5 1.2--12wx-w1--
2019-07-07 17:00:00 18.3 11.0 13.8--- 6245.0wxwxwx5wx---1007.6 969.2 1.5---------
2019-07-07 16:00:00 20.2 12.5 15.4--- 6140.0wxwxwxwxwx4wx---1006.5 968.4 1.4---------
2019-07-07 15:00:00 20.8 13.1 15.9--- 6140.0wxwxwxwx5wx-1251006.3 968.3 1.2---wx-w1--
2019-07-07 14:00:00 23.1 12.5 16.6--- 5135.0wxwxwxwx4wx9941005.4 967.7 0.5---------
2019-07-07 13:00:00 24.3 12.0 16.8--- 4630.0wxwxwxwx5wx---1004.5 967.0 -0.4---wx---
2019-07-07 12:00:00 24.5 11.5 16.7--- 4435.0wxwxwxwx4wx--41004.6 967.1 -0.7- 0.06wx---
2019-07-07 11:00:00 24.3 12.0 16.8--- 4635.0wxwxwxwx4wx---1004.7 967.2 -0.4---wx-w1--
2019-07-07 10:00:00 24.9 12.9 17.5--- 4730.0wxwxwxwxwx2wx--21004.8 967.4 -0.7---------
2019-07-07 09:00:00 23.9 11.7 16.5--- 4645.0wxwxwxwxwx1wx--11005.4 967.8 -0.3---------
2019-07-07 08:00:00 22.5 12.8 16.5--- 5430.0wxwxwxwxwx2wx--21005.3 967.6 -0.5---------
2019-07-07 07:00:00 21.0 12.0 15.4--- 5635.0wxwxwxwx2wx--21006.1 968.1 1.0---------
2019-07-07 06:00:00 20.1 11.4 14.8 23.8 18.2 16 5730.0wx-wxwx1wx-911006.2 968.1 1.3- 0.012----- 5.3
2019-07-07 05:00:00 18.4 12.5 14.6--- 6940.0wx-wxwx2wx--21006.4 968.1 1.2---------
2019-07-07 04:00:00 19.1 12.2 14.7--- 6440.0wx-wxwx2wx--21005.3 967.1 0.0---------
2019-07-07 03:00:00 20.0 11.8 14.9--- 5940.0wx-wxwx2wx-921004.8 966.8 -0.7---------
2019-07-07 02:00:00 20.7 11.4 15.0--- 5550.0wx-wxwx5wx-951004.8 966.9 -1.1---------
2019-07-07 01:00:00 21.1 11.2 15.1--- 5345.0wx-wx3wx---1005.0 967.1 -0.9---------
2019-07-07 00:00:00 20.9 10.8 14.8--- 5250.0wx-wx1wx--11005.4 967.5 -1.2- 0.06------
2019-07-06 23:00:00 20.4 9.7 14.1--- 5050.0wx-wx3wx--31006.0 968.0 -0.9---------
2019-07-06 22:00:00 19.4 10.8 14.2--- 5850.0wx-wx3wx--31006.2 968.0 -1.0---------
2019-07-06 21:00:00 19.6 12.0 14.8--- 6235.0wx-wxwx3wx--31006.9 968.7 -0.6---------
2019-07-06 20:00:00 21.1 12.1 15.5--- 5635.0wx-wxwx2wx--21006.9 968.9 -0.6---------
2019-07-06 19:00:00 22.4 12.1 16.1--- 5230.0wxwxwxwx2wx--21006.8 969.0 -0.8---------
2019-07-06 18:00:00 23.8 11.6 16.4 26.1 17.5- 4630.0wxwxwxwx2wx--21006.9 969.3 -0.9- 0.012------
2019-07-06 17:00:00 24.9 11.5 16.8--- 4335.0wxwxwxwxwx3wx--31007.0 969.5 -1.4---------
2019-07-06 16:00:00 25.2 11.8 17.1--- 4340.0wxwxwxwx2wx--21007.3 969.8 -1.7---------
2019-07-06 15:00:00 25.2 11.5 16.9--- 4235.0wxwxwxwxwx4wx--41007.7 970.2 -1.8---------
2019-07-06 14:00:00 24.4 11.8 16.8--- 4535.0wxwxwxwx3wx--31008.5 970.9 -1.6---------
2019-07-06 13:00:00 23.4 11.9 16.4--- 4829.0wxwxwxwx4wx--41009.3 971.5 -1.6---------
2019-07-06 12:00:00 23.8 10.6 16.0--- 4335.0wxwxwxwxwx2wx--21009.7 972.0 -1.6- 0.06------
2019-07-06 11:00:00 22.9 9.4 15.0--- 4230.0wxwxwxwxwx3wx--31010.4 972.5 -1.6---------
2019-07-06 10:00:00 22.7 9.2 14.9--- 4235.0wxwxwxwx4wx--41011.0 973.1 -1.2---------
2019-07-06 09:00:00 21.7 11.2 15.3--- 5130.0wxwxwxwxwx2wx--21011.7 973.6 -0.7---------
2019-07-06 08:00:00 19.9 10.7 14.3--- 5527.0wxwxwxwxwx2wx--21012.4 974.1 -0.6---------
2019-07-06 07:00:00 18.2 10.6 13.5--- 6135.0wx-wx2wx--21012.9 974.3 -0.3---------
2019-07-06 06:00:00 17.5 10.0 12.9 19.4 15.6 15 6135.0wxwxwxwx3wx--31013.0 974.3 -0.1--12wx-w1- 7.1
2019-07-06 05:00:00 15.8 11.1 12.8--- 7430.0wxwxwxwx1wx--11013.6 974.7 0.2---wx---
2019-07-06 04:00:00 15.8 9.3 11.8--- 6550.0wxwxwxwx1wx--11013.5 974.6 -0.1---------
2019-07-06 03:00:00 15.7 9.5 11.9--- 6745.0wxwxwxwx2wx--21013.3 974.4 -0.5---------
2019-07-06 02:00:00 16.1 9.1 11.9--- 6350.0wxwxwxwx2wx--21013.4 974.5 -0.3---------
2019-07-06 01:00:00 16.3 9.1 12.0--- 6250.0wxwxwxwx2wx--21013.5 974.7 -0.2---------
2019-07-06 00:00:00 16.7 9.0 12.1--- 6045.0wxwxwx1wx--11013.7 974.9 0.3- 0.06------
1.1 ms

 

Print Friendly, PDF & Email